map of AXK home
Great Circle Mapper logo
AXK - Airport
Location
City:  Ataq, Yemen
ICAO / IATA:OYAT / AXK

Details
Type:Airport (Aerodrome, Airfield)
Use:Public/Civil, Military
Latitude:1433'05"N (14.551322)
Longitude:4649'34"E (46.826183)
Datum:WGS 1984
Elevation:3735 ft (1138 m)
Runways:1
Longest:9482 × 164 ft (2890 × 50 m), paved

Time
Time Zone:UTC+3
Local Time:

Weather
METAR:OYAT 231400Z 33013KT 9999 FEW030 29/06 Q1019

Related Locations
Nearby:
Farthest:REA: 12091 mi / 19459 km
Reao, PF

Find:

   beyond  
but within

Other Information
Maps:
NOTAMs:
Links:
Sources:

  
flag of Yemen   

Sectional Chart

Flight Planning
at skyvector.com

Satellite Image

Google Maps Satellite View

 

Copyright © 2004-2014 Karl L. Swartz. All rights reserved.
The Great Circle Mapper name and logo are trademarks of the Great Circle Mapper.
All other trademarks mentioned herein belong to their respective owners.
Please see credits for attibutions and further copyright information.

  Follow gcmap on Facebook Follow gcmap on Twitter

hCard Microformat

Geo Microformat